Canyon Dam, California
Current Conditions -  °F | °C
As of 3:15 AM on Monday 20 Oct 2014 (Local Time) from KCIC Reporting Station
Overcast Overcast  
Wind Chill: 64°   Ceiling: 5000
Heat Index: 64°   Visibility: 10mi
Dew Point: 50°   Wind: 8mph
Humidity: 59%   Direction: 180°S
Pressure: 29.85"   Gusts: NA
Location:  40.2035°N, 121.147°W
Report Text: KCIC 201015Z AUTO 18007KT 10SM OVC050 18/10 A2985 RMK AO1
Loading
Personal Weather Stations






























Interactive Weather Map
Tropical Storm Tracking
New forecast layout! Learn more

10-Day Weather Forecast

Advertisements
Track Severe Weather on mobile